sensor_id;sensor_type;location;lat;lon;timestamp;pressure;altitude;pressure_sealevel;temperature
45850;BMP180;10739;52.198;20.908;2023-08-24T00:01:25;100528.00;;;22.20
45850;BMP180;10739;52.198;20.908;2023-08-24T00:03:52;100535.00;;;22.20
45850;BMP180;10739;52.198;20.908;2023-08-24T00:06:18;100538.00;;;22.10
45850;BMP180;10739;52.198;20.908;2023-08-24T00:08:45;100526.00;;;22.30
45850;BMP180;10739;52.198;20.908;2023-08-24T00:11:11;100535.00;;;22.40
45850;BMP180;10739;52.198;20.908;2023-08-24T00:13:44;100537.00;;;22.20
45850;BMP180;10739;52.198;20.908;2023-08-24T00:16:19;100541.00;;;22.40
45850;BMP180;10739;52.198;20.908;2023-08-24T00:18:46;100533.00;;;22.40
45850;BMP180;10739;52.198;20.908;2023-08-24T00:21:14;100531.00;;;22.40
45850;BMP180;10739;52.198;20.908;2023-08-24T00:23:45;100531.00;;;22.40
45850;BMP180;10739;52.198;20.908;2023-08-24T00:26:11;100529.00;;;22.40
45850;BMP180;10739;52.198;20.908;2023-08-24T00:28:37;100529.00;;;22.40
45850;BMP180;10739;52.198;20.908;2023-08-24T00:31:03;100522.00;;;22.30
45850;BMP180;10739;52.198;20.908;2023-08-24T00:33:30;100527.00;;;22.30
45850;BMP180;10739;52.198;20.908;2023-08-24T00:36:05;100532.00;;;22.30
45850;BMP180;10739;52.198;20.908;2023-08-24T00:38:31;100534.00;;;22.30
45850;BMP180;10739;52.198;20.908;2023-08-24T00:40:58;100529.00;;;22.10
45850;BMP180;10739;52.198;20.908;2023-08-24T00:43:28;100518.00;;;22.00
45850;BMP180;10739;52.198;20.908;2023-08-24T00:45:57;100524.00;;;22.10
45850;BMP180;10739;52.198;20.908;2023-08-24T00:48:27;100522.00;;;22.10
45850;BMP180;10739;52.198;20.908;2023-08-24T00:51:00;100523.00;;;22.10
45850;BMP180;10739;52.198;20.908;2023-08-24T00:53:28;100531.00;;;22.10
45850;BMP180;10739;52.198;20.908;2023-08-24T00:55:55;100525.00;;;22.00
45850;BMP180;10739;52.198;20.908;2023-08-24T00:58:22;100531.00;;;22.00
45850;BMP180;10739;52.198;20.908;2023-08-24T01:00:52;100525.00;;;22.00
45850;BMP180;10739;52.198;20.908;2023-08-24T01:03:22;100527.00;;;21.90
45850;BMP180;10739;52.198;20.908;2023-08-24T01:05:49;100527.00;;;21.90
45850;BMP180;10739;52.198;20.908;2023-08-24T01:08:16;100528.00;;;21.80
45850;BMP180;10739;52.198;20.908;2023-08-24T01:16:34;100522.00;;;21.80
45850;BMP180;10739;52.198;20.908;2023-08-24T01:22:01;100519.00;;;21.70
45850;BMP180;10739;52.198;20.908;2023-08-24T01:24:40;100522.00;;;21.70
45850;BMP180;10739;52.198;20.908;2023-08-24T01:27:10;100514.00;;;21.80
45850;BMP180;10739;52.198;20.908;2023-08-24T01:29:38;100515.00;;;21.70
45850;BMP180;10739;52.198;20.908;2023-08-24T01:32:10;100511.00;;;21.60
45850;BMP180;10739;52.198;20.908;2023-08-24T01:34:38;100506.00;;;21.70
45850;BMP180;10739;52.198;20.908;2023-08-24T01:37:08;100502.00;;;21.70
45850;BMP180;10739;52.198;20.908;2023-08-24T01:39:52;100500.00;;;21.80
45850;BMP180;10739;52.198;20.908;2023-08-24T01:42:27;100498.00;;;21.80
45850;BMP180;10739;52.198;20.908;2023-08-24T01:45:00;100499.00;;;21.80
45850;BMP180;10739;52.198;20.908;2023-08-24T01:47:30;100502.00;;;21.80
45850;BMP180;10739;52.198;20.908;2023-08-24T01:49:57;100505.00;;;21.80
45850;BMP180;10739;52.198;20.908;2023-08-24T01:52:24;100506.00;;;21.70
45850;BMP180;10739;52.198;20.908;2023-08-24T01:54:51;100497.00;;;21.70
45850;BMP180;10739;52.198;20.908;2023-08-24T01:57:17;100502.00;;;21.80
45850;BMP180;10739;52.198;20.908;2023-08-24T01:59:44;100489.00;;;21.80
45850;BMP180;10739;52.198;20.908;2023-08-24T02:02:10;100502.00;;;21.80
45850;BMP180;10739;52.198;20.908;2023-08-24T02:04:36;100496.00;;;21.80
45850;BMP180;10739;52.198;20.908;2023-08-24T02:07:02;100498.00;;;21.80
45850;BMP180;10739;52.198;20.908;2023-08-24T02:09:28;100499.00;;;21.70
45850;BMP180;10739;52.198;20.908;2023-08-24T02:11:56;100500.00;;;21.80
45850;BMP180;10739;52.198;20.908;2023-08-24T02:14:22;100497.00;;;21.80
45850;BMP180;10739;52.198;20.908;2023-08-24T02:16:48;100497.00;;;21.80
45850;BMP180;10739;52.198;20.908;2023-08-24T02:19:14;100502.00;;;21.70
45850;BMP180;10739;52.198;20.908;2023-08-24T02:21:40;100501.00;;;21.60
45850;BMP180;10739;52.198;20.908;2023-08-24T02:24:07;100497.00;;;21.50
45850;BMP180;10739;52.198;20.908;2023-08-24T02:26:33;100501.00;;;21.40
45850;BMP180;10739;52.198;20.908;2023-08-24T02:28:59;100500.00;;;21.40
45850;BMP180;10739;52.198;20.908;2023-08-24T02:31:25;100500.00;;;21.30
45850;BMP180;10739;52.198;20.908;2023-08-24T02:33:52;100490.00;;;21.40
45850;BMP180;10739;52.198;20.908;2023-08-24T02:36:18;100496.00;;;21.40
45850;BMP180;10739;52.198;20.908;2023-08-24T02:38:44;100500.00;;;21.60
45850;BMP180;10739;52.198;20.908;2023-08-24T02:41:11;100492.00;;;21.90
45850;BMP180;10739;52.198;20.908;2023-08-24T02:43:38;100494.00;;;21.90
45850;BMP180;10739;52.198;20.908;2023-08-24T02:46:07;100492.00;;;22.00
45850;BMP180;10739;52.198;20.908;2023-08-24T02:48:34;100494.00;;;22.00
45850;BMP180;10739;52.198;20.908;2023-08-24T02:51:03;100490.00;;;21.90
45850;BMP180;10739;52.198;20.908;2023-08-24T02:53:30;100500.00;;;21.50
45850;BMP180;10739;52.198;20.908;2023-08-24T02:55:57;100496.00;;;21.40
45850;BMP180;10739;52.198;20.908;2023-08-24T02:58:24;100502.00;;;21.40
45850;BMP180;10739;52.198;20.908;2023-08-24T03:00:50;100504.00;;;21.40
45850;BMP180;10739;52.198;20.908;2023-08-24T03:03:16;100494.00;;;21.40
45850;BMP180;10739;52.198;20.908;2023-08-24T03:06:01;100495.00;;;21.40
45850;BMP180;10739;52.198;20.908;2023-08-24T03:08:30;100498.00;;;21.40
45850;BMP180;10739;52.198;20.908;2023-08-24T03:10:57;100501.00;;;21.40
45850;BMP180;10739;52.198;20.908;2023-08-24T03:13:24;100494.00;;;21.40
45850;BMP180;10739;52.198;20.908;2023-08-24T03:15:50;100494.00;;;21.40
45850;BMP180;10739;52.198;20.908;2023-08-24T03:18:18;100497.00;;;21.50
45850;BMP180;10739;52.198;20.908;2023-08-24T03:20:47;100497.00;;;21.50
45850;BMP180;10739;52.198;20.908;2023-08-24T03:23:15;100492.00;;;21.50
45850;BMP180;10739;52.198;20.908;2023-08-24T03:25:42;100493.00;;;21.40
45850;BMP180;10739;52.198;20.908;2023-08-24T03:28:09;100496.00;;;21.40
45850;BMP180;10739;52.198;20.908;2023-08-24T03:30:38;100494.00;;;21.40
45850;BMP180;10739;52.198;20.908;2023-08-24T03:33:05;100486.00;;;21.40
45850;BMP180;10739;52.198;20.908;2023-08-24T03:35:32;100487.00;;;21.40
45850;BMP180;10739;52.198;20.908;2023-08-24T03:37:59;100487.00;;;21.30
45850;BMP180;10739;52.198;20.908;2023-08-24T03:40:26;100481.00;;;21.30
45850;BMP180;10739;52.198;20.908;2023-08-24T03:42:52;100482.00;;;21.30
45850;BMP180;10739;52.198;20.908;2023-08-24T03:45:20;100480.00;;;21.30
45850;BMP180;10739;52.198;20.908;2023-08-24T03:47:46;100481.00;;;21.20
45850;BMP180;10739;52.198;20.908;2023-08-24T03:50:13;100490.00;;;21.30
45850;BMP180;10739;52.198;20.908;2023-08-24T03:52:39;100483.00;;;21.40
45850;BMP180;10739;52.198;20.908;2023-08-24T03:55:07;100490.00;;;21.30
45850;BMP180;10739;52.198;20.908;2023-08-24T03:57:34;100487.00;;;21.40
45850;BMP180;10739;52.198;20.908;2023-08-24T04:00:00;100478.00;;;21.40
45850;BMP180;10739;52.198;20.908;2023-08-24T04:02:26;100487.00;;;21.30
45850;BMP180;10739;52.198;20.908;2023-08-24T04:04:53;100492.00;;;21.40
45850;BMP180;10739;52.198;20.908;2023-08-24T04:07:19;100487.00;;;21.40
45850;BMP180;10739;52.198;20.908;2023-08-24T04:09:46;100493.00;;;21.30
45850;BMP180;10739;52.198;20.908;2023-08-24T04:12:12;100491.00;;;21.30
45850;BMP180;10739;52.198;20.908;2023-08-24T04:14:38;100498.00;;;21.30
45850;BMP180;10739;52.198;20.908;2023-08-24T04:17:04;100502.00;;;21.40
45850;BMP180;10739;52.198;20.908;2023-08-24T04:19:31;100496.00;;;21.20
45850;BMP180;10739;52.198;20.908;2023-08-24T04:21:58;100500.00;;;21.30
45850;BMP180;10739;52.198;20.908;2023-08-24T04:24:24;100495.00;;;21.20
45850;BMP180;10739;52.198;20.908;2023-08-24T04:26:51;100499.00;;;21.30
45850;BMP180;10739;52.198;20.908;2023-08-24T04:29:17;100501.00;;;21.30
45850;BMP180;10739;52.198;20.908;2023-08-24T04:31:44;100503.00;;;21.50
45850;BMP180;10739;52.198;20.908;2023-08-24T04:34:10;100494.00;;;21.60
45850;BMP180;10739;52.198;20.908;2023-08-24T04:36:37;100499.00;;;21.50
45850;BMP180;10739;52.198;20.908;2023-08-24T04:39:03;100492.00;;;21.70
45850;BMP180;10739;52.198;20.908;2023-08-24T04:41:29;100488.00;;;21.70
45850;BMP180;10739;52.198;20.908;2023-08-24T04:43:56;100497.00;;;21.70
45850;BMP180;10739;52.198;20.908;2023-08-24T04:46:22;100488.00;;;21.80
45850;BMP180;10739;52.198;20.908;2023-08-24T04:48:48;100494.00;;;21.80
45850;BMP180;10739;52.198;20.908;2023-08-24T04:51:14;100494.00;;;21.70
45850;BMP180;10739;52.198;20.908;2023-08-24T04:53:40;100486.00;;;21.80
45850;BMP180;10739;52.198;20.908;2023-08-24T04:56:09;100501.00;;;21.80
45850;BMP180;10739;52.198;20.908;2023-08-24T04:58:35;100497.00;;;21.90
45850;BMP180;10739;52.198;20.908;2023-08-24T05:01:02;100493.00;;;21.90
45850;BMP180;10739;52.198;20.908;2023-08-24T05:03:28;100494.00;;;21.90
45850;BMP180;10739;52.198;20.908;2023-08-24T05:05:54;100497.00;;;21.90
45850;BMP180;10739;52.198;20.908;2023-08-24T05:08:21;100505.00;;;22.20
45850;BMP180;10739;52.198;20.908;2023-08-24T05:10:47;100501.00;;;22.20
45850;BMP180;10739;52.198;20.908;2023-08-24T05:13:13;100507.00;;;22.10
45850;BMP180;10739;52.198;20.908;2023-08-24T05:15:39;100504.00;;;22.10
45850;BMP180;10739;52.198;20.908;2023-08-24T05:18:05;100506.00;;;22.30
45850;BMP180;10739;52.198;20.908;2023-08-24T05:20:33;100502.00;;;22.50
45850;BMP180;10739;52.198;20.908;2023-08-24T05:23:02;100500.00;;;22.40
45850;BMP180;10739;52.198;20.908;2023-08-24T05:25:28;100498.00;;;22.50
45850;BMP180;10739;52.198;20.908;2023-08-24T05:27:55;100503.00;;;22.40
45850;BMP180;10739;52.198;20.908;2023-08-24T05:30:21;100502.00;;;22.40
45850;BMP180;10739;52.198;20.908;2023-08-24T05:32:47;100498.00;;;22.30
45850;BMP180;10739;52.198;20.908;2023-08-24T05:35:13;100503.00;;;22.70
45850;BMP180;10739;52.198;20.908;2023-08-24T05:37:40;100505.00;;;22.70
45850;BMP180;10739;52.198;20.908;2023-08-24T05:40:07;100505.00;;;22.90
45850;BMP180;10739;52.198;20.908;2023-08-24T05:42:33;100500.00;;;23.10
45850;BMP180;10739;52.198;20.908;2023-08-24T05:45:00;100507.00;;;23.00
45850;BMP180;10739;52.198;20.908;2023-08-24T05:47:26;100516.00;;;22.80
45850;BMP180;10739;52.198;20.908;2023-08-24T05:49:52;100511.00;;;23.10
45850;BMP180;10739;52.198;20.908;2023-08-24T05:52:18;100506.00;;;23.00
45850;BMP180;10739;52.198;20.908;2023-08-24T05:54:44;100502.00;;;23.10
45850;BMP180;10739;52.198;20.908;2023-08-24T05:57:10;100513.00;;;23.10
45850;BMP180;10739;52.198;20.908;2023-08-24T05:59:37;100515.00;;;23.10
45850;BMP180;10739;52.198;20.908;2023-08-24T06:02:03;100514.00;;;23.40
45850;BMP180;10739;52.198;20.908;2023-08-24T06:04:30;100514.00;;;23.50
45850;BMP180;10739;52.198;20.908;2023-08-24T06:06:56;100508.00;;;23.60
45850;BMP180;10739;52.198;20.908;2023-08-24T06:09:22;100513.00;;;23.60
45850;BMP180;10739;52.198;20.908;2023-08-24T06:11:48;100511.00;;;23.40
45850;BMP180;10739;52.198;20.908;2023-08-24T06:14:15;100515.00;;;23.60
45850;BMP180;10739;52.198;20.908;2023-08-24T06:16:41;100510.00;;;23.60
45850;BMP180;10739;52.198;20.908;2023-08-24T06:19:07;100513.00;;;23.50
45850;BMP180;10739;52.198;20.908;2023-08-24T06:21:33;100512.00;;;23.50
45850;BMP180;10739;52.198;20.908;2023-08-24T06:23:59;100507.00;;;23.90
45850;BMP180;10739;52.198;20.908;2023-08-24T06:26:27;100505.00;;;23.50
45850;BMP180;10739;52.198;20.908;2023-08-24T06:28:53;100500.00;;;23.70
45850;BMP180;10739;52.198;20.908;2023-08-24T06:31:19;100505.00;;;23.80
45850;BMP180;10739;52.198;20.908;2023-08-24T06:33:45;100504.00;;;23.70
45850;BMP180;10739;52.198;20.908;2023-08-24T06:36:11;100500.00;;;23.70
45850;BMP180;10739;52.198;20.908;2023-08-24T06:38:38;100500.00;;;24.30
45850;BMP180;10739;52.198;20.908;2023-08-24T06:41:04;100507.00;;;24.20
45850;BMP180;10739;52.198;20.908;2023-08-24T06:43:30;100503.00;;;24.10
45850;BMP180;10739;52.198;20.908;2023-08-24T06:45:56;100505.00;;;24.60
45850;BMP180;10739;52.198;20.908;2023-08-24T06:48:23;100502.00;;;24.50
45850;BMP180;10739;52.198;20.908;2023-08-24T06:50:49;100501.00;;;24.80
45850;BMP180;10739;52.198;20.908;2023-08-24T06:53:15;100507.00;;;24.30
45850;BMP180;10739;52.198;20.908;2023-08-24T06:55:41;100502.00;;;24.40
45850;BMP180;10739;52.198;20.908;2023-08-24T06:58:08;100509.00;;;24.70
45850;BMP180;10739;52.198;20.908;2023-08-24T07:00:34;100511.00;;;25.20
45850;BMP180;10739;52.198;20.908;2023-08-24T07:03:01;100516.00;;;24.90
45850;BMP180;10739;52.198;20.908;2023-08-24T07:05:35;100509.00;;;25.00
45850;BMP180;10739;52.198;20.908;2023-08-24T07:08:04;100520.00;;;25.60
45850;BMP180;10739;52.198;20.908;2023-08-24T07:10:30;100519.00;;;25.60
45850;BMP180;10739;52.198;20.908;2023-08-24T07:12:57;100520.00;;;26.00
45850;BMP180;10739;52.198;20.908;2023-08-24T07:15:24;100521.00;;;25.80
45850;BMP180;10739;52.198;20.908;2023-08-24T07:17:51;100533.00;;;26.00
45850;BMP180;10739;52.198;20.908;2023-08-24T07:20:17;100527.00;;;25.70
45850;BMP180;10739;52.198;20.908;2023-08-24T07:22:43;100531.00;;;25.80
45850;BMP180;10739;52.198;20.908;2023-08-24T07:25:09;100532.00;;;26.40
45850;BMP180;10739;52.198;20.908;2023-08-24T07:27:37;100533.00;;;26.70
45850;BMP180;10739;52.198;20.908;2023-08-24T07:30:03;100525.00;;;26.70
45850;BMP180;10739;52.198;20.908;2023-08-24T07:32:33;100528.00;;;27.10
45850;BMP180;10739;52.198;20.908;2023-08-24T07:34:59;100518.00;;;27.20
45850;BMP180;10739;52.198;20.908;2023-08-24T07:37:26;100525.00;;;27.10
45850;BMP180;10739;52.198;20.908;2023-08-24T07:39:52;100527.00;;;27.20
45850;BMP180;10739;52.198;20.908;2023-08-24T07:42:23;100535.00;;;27.40
45850;BMP180;10739;52.198;20.908;2023-08-24T07:44:54;100530.00;;;27.10
45850;BMP180;10739;52.198;20.908;2023-08-24T07:47:22;100532.00;;;26.90
45850;BMP180;10739;52.198;20.908;2023-08-24T07:49:48;100529.00;;;26.70
45850;BMP180;10739;52.198;20.908;2023-08-24T07:52:14;100524.00;;;27.10
45850;BMP180;10739;52.198;20.908;2023-08-24T07:54:40;100523.00;;;27.60
45850;BMP180;10739;52.198;20.908;2023-08-24T07:57:06;100516.00;;;27.30
45850;BMP180;10739;52.198;20.908;2023-08-24T07:59:33;100526.00;;;27.40
45850;BMP180;10739;52.198;20.908;2023-08-24T08:01:59;100521.00;;;27.40
45850;BMP180;10739;52.198;20.908;2023-08-24T08:04:25;100518.00;;;27.30
45850;BMP180;10739;52.198;20.908;2023-08-24T08:06:51;100519.00;;;27.30
45850;BMP180;10739;52.198;20.908;2023-08-24T08:09:17;100521.00;;;27.70
45850;BMP180;10739;52.198;20.908;2023-08-24T08:11:43;100519.00;;;28.10
45850;BMP180;10739;52.198;20.908;2023-08-24T08:14:09;100515.00;;;27.90
45850;BMP180;10739;52.198;20.908;2023-08-24T08:16:35;100515.00;;;28.10
45850;BMP180;10739;52.198;20.908;2023-08-24T08:19:02;100511.00;;;28.00
45850;BMP180;10739;52.198;20.908;2023-08-24T08:21:28;100518.00;;;28.00
45850;BMP180;10739;52.198;20.908;2023-08-24T08:23:54;100517.00;;;28.60
45850;BMP180;10739;52.198;20.908;2023-08-24T08:26:21;100516.00;;;29.10
45850;BMP180;10739;52.198;20.908;2023-08-24T08:28:47;100518.00;;;29.10
45850;BMP180;10739;52.198;20.908;2023-08-24T08:31:13;100519.00;;;29.00
45850;BMP180;10739;52.198;20.908;2023-08-24T08:33:39;100528.00;;;28.60
45850;BMP180;10739;52.198;20.908;2023-08-24T08:36:05;100523.00;;;28.60
45850;BMP180;10739;52.198;20.908;2023-08-24T08:38:31;100516.00;;;29.40
45850;BMP180;10739;52.198;20.908;2023-08-24T08:41:03;100514.00;;;29.50
45850;BMP180;10739;52.198;20.908;2023-08-24T08:43:30;100512.00;;;29.90
45850;BMP180;10739;52.198;20.908;2023-08-24T08:45:59;100510.00;;;30.40
45850;BMP180;10739;52.198;20.908;2023-08-24T08:48:26;100514.00;;;30.60
45850;BMP180;10739;52.198;20.908;2023-08-24T08:50:54;100504.00;;;30.30
45850;BMP180;10739;52.198;20.908;2023-08-24T08:53:22;100512.00;;;30.30
45850;BMP180;10739;52.198;20.908;2023-08-24T08:55:52;100506.00;;;30.50
45850;BMP180;10739;52.198;20.908;2023-08-24T08:58:20;100519.00;;;31.20
45850;BMP180;10739;52.198;20.908;2023-08-24T09:00:47;100512.00;;;31.10
45850;BMP180;10739;52.198;20.908;2023-08-24T09:03:18;100513.00;;;31.40
45850;BMP180;10739;52.198;20.908;2023-08-24T09:05:45;100516.00;;;31.30
45850;BMP180;10739;52.198;20.908;2023-08-24T09:08:16;100521.00;;;32.00
45850;BMP180;10739;52.198;20.908;2023-08-24T09:10:44;100510.00;;;32.30
45850;BMP180;10739;52.198;20.908;2023-08-24T09:13:10;100518.00;;;33.10
45850;BMP180;10739;52.198;20.908;2023-08-24T09:15:36;100517.00;;;33.30
45850;BMP180;10739;52.198;20.908;2023-08-24T09:18:03;100513.00;;;32.70
45850;BMP180;10739;52.198;20.908;2023-08-24T09:20:30;100517.00;;;32.20
45850;BMP180;10739;52.198;20.908;2023-08-24T09:22:57;100508.00;;;32.80
45850;BMP180;10739;52.198;20.908;2023-08-24T09:25:24;100518.00;;;33.50
45850;BMP180;10739;52.198;20.908;2023-08-24T09:28:03;100501.00;;;33.90
45850;BMP180;10739;52.198;20.908;2023-08-24T09:30:36;100495.00;;;33.90
45850;BMP180;10739;52.198;20.908;2023-08-24T09:33:05;100504.00;;;35.10
45850;BMP180;10739;52.198;20.908;2023-08-24T09:35:36;100498.00;;;34.40
45850;BMP180;10739;52.198;20.908;2023-08-24T09:38:23;100502.00;;;33.10
45850;BMP180;10739;52.198;20.908;2023-08-24T09:40:56;100497.00;;;33.40
45850;BMP180;10739;52.198;20.908;2023-08-24T09:43:23;100494.00;;;33.30
45850;BMP180;10739;52.198;20.908;2023-08-24T09:45:56;100495.00;;;34.30
45850;BMP180;10739;52.198;20.908;2023-08-24T09:48:23;100492.00;;;34.10
45850;BMP180;10739;52.198;20.908;2023-08-24T09:50:51;100494.00;;;34.70
45850;BMP180;10739;52.198;20.908;2023-08-24T09:53:22;100500.00;;;35.40
45850;BMP180;10739;52.198;20.908;2023-08-24T09:56:02;100497.00;;;34.90
45850;BMP180;10739;52.198;20.908;2023-08-24T09:58:29;100495.00;;;35.00
45850;BMP180;10739;52.198;20.908;2023-08-24T10:00:56;100497.00;;;34.90
45850;BMP180;10739;52.198;20.908;2023-08-24T10:03:27;100499.00;;;33.40
45850;BMP180;10739;52.198;20.908;2023-08-24T10:05:57;100502.00;;;32.90
45850;BMP180;10739;52.198;20.908;2023-08-24T10:08:29;100504.00;;;32.30
45850;BMP180;10739;52.198;20.908;2023-08-24T10:10:56;100507.00;;;31.60
45850;BMP180;10739;52.198;20.908;2023-08-24T10:13:45;100504.00;;;31.60
45850;BMP180;10739;52.198;20.908;2023-08-24T10:16:16;100505.00;;;31.70
45850;BMP180;10739;52.198;20.908;2023-08-24T10:18:43;100507.00;;;31.70
45850;BMP180;10739;52.198;20.908;2023-08-24T10:21:10;100506.00;;;31.10
45850;BMP180;10739;52.198;20.908;2023-08-24T10:23:38;100503.00;;;31.10
45850;BMP180;10739;52.198;20.908;2023-08-24T10:26:07;100501.00;;;32.00
45850;BMP180;10739;52.198;20.908;2023-08-24T10:28:34;100502.00;;;31.80
45850;BMP180;10739;52.198;20.908;2023-08-24T10:31:02;100507.00;;;31.80
45850;BMP180;10739;52.198;20.908;2023-08-24T10:33:30;100509.00;;;32.00
45850;BMP180;10739;52.198;20.908;2023-08-24T10:35:58;100503.00;;;32.00
45850;BMP180;10739;52.198;20.908;2023-08-24T10:38:29;100500.00;;;32.50
45850;BMP180;10739;52.198;20.908;2023-08-24T10:41:03;100503.00;;;32.20
45850;BMP180;10739;52.198;20.908;2023-08-24T10:43:33;100495.00;;;32.60
45850;BMP180;10739;52.198;20.908;2023-08-24T10:46:01;100493.00;;;32.60
45850;BMP180;10739;52.198;20.908;2023-08-24T10:53:41;100485.00;;;33.80
45850;BMP180;10739;52.198;20.908;2023-08-24T10:56:16;100486.00;;;33.50
45850;BMP180;10739;52.198;20.908;2023-08-24T10:58:47;100486.00;;;33.40
45850;BMP180;10739;52.198;20.908;2023-08-24T11:01:32;100496.00;;;33.50
45850;BMP180;10739;52.198;20.908;2023-08-24T11:03:58;100491.00;;;32.80
45850;BMP180;10739;52.198;20.908;2023-08-24T11:06:25;100487.00;;;33.10
45850;BMP180;10739;52.198;20.908;2023-08-24T11:09:09;100481.00;;;32.50
45850;BMP180;10739;52.198;20.908;2023-08-24T11:11:40;100476.00;;;32.80
45850;BMP180;10739;52.198;20.908;2023-08-24T11:14:18;100482.00;;;32.10
45850;BMP180;10739;52.198;20.908;2023-08-24T11:17:01;100486.00;;;31.90
45850;BMP180;10739;52.198;20.908;2023-08-24T11:19:29;100477.00;;;31.70
45850;BMP180;10739;52.198;20.908;2023-08-24T11:21:56;100481.00;;;31.70
45850;BMP180;10739;52.198;20.908;2023-08-24T11:24:22;100475.00;;;31.80
45850;BMP180;10739;52.198;20.908;2023-08-24T11:26:50;100472.00;;;31.80
45850;BMP180;10739;52.198;20.908;2023-08-24T11:29:17;100477.00;;;31.60
45850;BMP180;10739;52.198;20.908;2023-08-24T11:31:44;100475.00;;;31.70
45850;BMP180;10739;52.198;20.908;2023-08-24T11:34:10;100480.00;;;31.60
45850;BMP180;10739;52.198;20.908;2023-08-24T11:36:46;100476.00;;;31.10
45850;BMP180;10739;52.198;20.908;2023-08-24T11:39:20;100475.00;;;31.40
45850;BMP180;10739;52.198;20.908;2023-08-24T11:42:00;100466.00;;;31.50
45850;BMP180;10739;52.198;20.908;2023-08-24T11:44:44;100464.00;;;31.50
45850;BMP180;10739;52.198;20.908;2023-08-24T11:47:11;100465.00;;;31.40
45850;BMP180;10739;52.198;20.908;2023-08-24T11:49:38;100456.00;;;32.30
45850;BMP180;10739;52.198;20.908;2023-08-24T11:52:04;100455.00;;;32.40
45850;BMP180;10739;52.198;20.908;2023-08-24T11:54:32;100449.00;;;32.40
45850;BMP180;10739;52.198;20.908;2023-08-24T11:56:59;100444.00;;;33.20
45850;BMP180;10739;52.198;20.908;2023-08-24T11:59:26;100439.00;;;34.20
45850;BMP180;10739;52.198;20.908;2023-08-24T12:01:53;100434.00;;;34.30
45850;BMP180;10739;52.198;20.908;2023-08-24T12:04:19;100442.00;;;34.40
45850;BMP180;10739;52.198;20.908;2023-08-24T12:06:46;100444.00;;;33.40
45850;BMP180;10739;52.198;20.908;2023-08-24T12:09:11;100442.00;;;34.00
45850;BMP180;10739;52.198;20.908;2023-08-24T12:11:38;100444.00;;;33.70
45850;BMP180;10739;52.198;20.908;2023-08-24T12:14:06;100433.00;;;33.40
45850;BMP180;10739;52.198;20.908;2023-08-24T12:16:35;100428.00;;;33.90
45850;BMP180;10739;52.198;20.908;2023-08-24T12:19:01;100429.00;;;34.60
45850;BMP180;10739;52.198;20.908;2023-08-24T12:21:31;100421.00;;;35.40
45850;BMP180;10739;52.198;20.908;2023-08-24T12:23:59;100418.00;;;36.00
45850;BMP180;10739;52.198;20.908;2023-08-24T12:26:29;100415.00;;;36.30
45850;BMP180;10739;52.198;20.908;2023-08-24T12:29:05;100414.00;;;35.80
45850;BMP180;10739;52.198;20.908;2023-08-24T12:31:35;100422.00;;;36.10
45850;BMP180;10739;52.198;20.908;2023-08-24T12:34:07;100418.00;;;35.40
45850;BMP180;10739;52.198;20.908;2023-08-24T12:36:38;100426.00;;;34.10
45850;BMP180;10739;52.198;20.908;2023-08-24T12:39:06;100428.00;;;33.90
45850;BMP180;10739;52.198;20.908;2023-08-24T12:41:34;100425.00;;;33.40
45850;BMP180;10739;52.198;20.908;2023-08-24T12:44:00;100418.00;;;32.90
45850;BMP180;10739;52.198;20.908;2023-08-24T12:46:34;100419.00;;;32.30
45850;BMP180;10739;52.198;20.908;2023-08-24T12:49:01;100418.00;;;31.80
45850;BMP180;10739;52.198;20.908;2023-08-24T12:51:28;100413.00;;;31.70
45850;BMP180;10739;52.198;20.908;2023-08-24T12:53:54;100412.00;;;31.50
45850;BMP180;10739;52.198;20.908;2023-08-24T12:56:20;100425.00;;;31.30
45850;BMP180;10739;52.198;20.908;2023-08-24T12:58:46;100424.00;;;32.00
45850;BMP180;10739;52.198;20.908;2023-08-24T13:01:12;100412.00;;;31.70
45850;BMP180;10739;52.198;20.908;2023-08-24T13:03:38;100414.00;;;31.40
45850;BMP180;10739;52.198;20.908;2023-08-24T13:06:08;100414.00;;;31.70
45850;BMP180;10739;52.198;20.908;2023-08-24T13:08:34;100412.00;;;31.70
45850;BMP180;10739;52.198;20.908;2023-08-24T13:11:00;100406.00;;;31.80
45850;BMP180;10739;52.198;20.908;2023-08-24T13:13:26;100395.00;;;32.10
45850;BMP180;10739;52.198;20.908;2023-08-24T13:15:52;100396.00;;;33.00
45850;BMP180;10739;52.198;20.908;2023-08-24T13:18:18;100388.00;;;33.40
45850;BMP180;10739;52.198;20.908;2023-08-24T13:20:44;100385.00;;;33.50
45850;BMP180;10739;52.198;20.908;2023-08-24T13:23:10;100395.00;;;33.30
45850;BMP180;10739;52.198;20.908;2023-08-24T13:25:36;100383.00;;;32.20
45850;BMP180;10739;52.198;20.908;2023-08-24T13:28:03;100389.00;;;32.00
45850;BMP180;10739;52.198;20.908;2023-08-24T13:30:29;100389.00;;;32.50
45850;BMP180;10739;52.198;20.908;2023-08-24T13:32:55;100388.00;;;33.40
45850;BMP180;10739;52.198;20.908;2023-08-24T13:35:21;100383.00;;;32.90
45850;BMP180;10739;52.198;20.908;2023-08-24T13:37:47;100387.00;;;33.20
45850;BMP180;10739;52.198;20.908;2023-08-24T13:40:14;100381.00;;;32.90
45850;BMP180;10739;52.198;20.908;2023-08-24T13:42:40;100381.00;;;33.10
45850;BMP180;10739;52.198;20.908;2023-08-24T13:45:06;100380.00;;;34.00
45850;BMP180;10739;52.198;20.908;2023-08-24T13:47:32;100375.00;;;35.10
45850;BMP180;10739;52.198;20.908;2023-08-24T13:49:58;100374.00;;;35.70
45850;BMP180;10739;52.198;20.908;2023-08-24T13:52:24;100369.00;;;35.80
45850;BMP180;10739;52.198;20.908;2023-08-24T13:54:50;100375.00;;;35.60
45850;BMP180;10739;52.198;20.908;2023-08-24T13:57:16;100369.00;;;35.00
45850;BMP180;10739;52.198;20.908;2023-08-24T13:59:43;100370.00;;;35.60
45850;BMP180;10739;52.198;20.908;2023-08-24T14:02:09;100365.00;;;36.10